Cegled, Hungary
Current Conditions -  °F | °C
As of 8:15 PM on Tuesday 27 Jan 2015 (Local Time) from LHKE Reporting Station
Overcast Overcast  
Wind Chill: 27°   Ceiling: 1800
Heat Index: 32°   Visibility: 5mi
Dew Point: 30°   Wind: 5mph
Humidity: 93%   Direction: 230°SW
Pressure: 30"   Gusts: NA
Location:  47.18°N, 19.78°E
Report Text: LHKE 271815Z 23004KT 8000 BKN018 OVC025 00/M01 Q1016 NOSIG RMK WHT
Loading
Personal Weather Stations






























Interactive Weather Map New forecast layout! Learn more

10-Day Weather Forecast

Advertisements
Track Severe Weather on mobile